Terminal Aerodrome Forecast
Issued by NWS

Home | Current Version | Previous Version | Text Only | Print | Product List | Glossary On
Versions: 1 2 3 4 5 6 7 8 9 10 11 12 13 14 15 16 17 18
785
FTUS43 KGRB 231734
TAFATW
TAF
KATW 231734Z 2318/2418 20012G19KT P6SM FEW045 SCT250
     FM240100 18007KT P6SM BKN200
     FM240800 17006KT 4SM BR BKN040 OVC120
     FM241200 18008KT 3SM -SHRA BR OVC008
     FM241700 21010G16KT 5SM BR VCSH BKN009 OVC014=

USA.gov is the U.S. government's official web portal to all federal, state and local government web resources and services.